De Kooy Airfield

EHKD · Holanda Septentrional, Países Bajos

METAR pasados EHKD · De Kooy Airfield

A continuación puedes ver los METAR de los últimos días. Selecciona un año para ver los METAR más antiguos, desde el año 2007 en adelante.

23 de junio de 2024

Hora Código Tiempo Temp. Visibilidad Cielo nuboso Viento METAR/SPECI
04:13
L
13 °C 650 m - 210° 210° 3 kt METAR EHKD 230213Z AUTO 21003KT 0650 FG NCD 13/12 Q1016 RED
04:07
I
13 °C 2,3 km - 200° 200° 4 kt METAR EHKD 230207Z AUTO 20004KT 2300 BR NCD 13/13 Q1016 YLO
04:03
I
13 °C 4,2 km - 200° 200° 4 kt METAR EHKD 230203Z AUTO 20004KT 4200 BR NCD 13/12 Q1016 GRN
03:55
V
13 °C 8 km - 200° 200° 4 kt METAR EHKD 230155Z AUTO 20004KT 8000 BR NCD 13/13 Q1016 BLU
03:33
V
13 °C 9 km - 220° 220° 4 kt METAR EHKD 230133Z AUTO 22004KT 9000 BR NCD 13/13 Q1016 BLU
03:25
M
14 °C 7 km - 230° 230° 4 kt METAR EHKD 230125Z AUTO 23004KT 7000 BR NCD 14/13 Q1016 WHT
03:09
V
14 °C 8 km - 240° 240° 3 kt METAR EHKD 230109Z AUTO 24003KT 8000 BR NCD 14/13 Q1016 BLU
03:05
M
14 °C 5 km - 240° 240° 3 kt METAR EHKD 230105Z AUTO 24003KT 5000 BR NCD 14/13 Q1016 WHT
03:01
I
14 °C 4,3 km - 240° 240° 3 kt METAR EHKD 230101Z AUTO 24003KT 4300 BR NCD 14/13 Q1016 GRN
02:55
M
14 °C 6 km - 240° 240° 4 kt METAR EHKD 230055Z AUTO 24004KT 6000 BR NCD 14/13 Q1016 WHT
02:25
M
14 °C 6 km - 230° 230° 4 kt METAR EHKD 230025Z AUTO 23004KT 6000 BR NCD 14/13 Q1016 WHT RMK CB INFO NOT AVBL
02:01
M
14 °C 5 km - 230° 230° 3 kt METAR EHKD 230001Z AUTO 23003KT 5000 BR NCD 14/13 Q1016 WHT
01:55
M
13 °C 6 km - 230° 230° 4 kt METAR EHKD 222355Z AUTO 23004KT 6000 BR NCD 13/13 Q1016 WHT
01:25
M
14 °C 6 km - 230° 230° 4 kt METAR EHKD 222325Z AUTO 23004KT 6000 BR NCD 14/13 Q1015 WHT
01:07
M
14 °C 7 km - 230° 230° 5 kt METAR EHKD 222307Z AUTO 23005KT 7000 BR NCD 14/13 Q1015 WHT
00:55
V
14 °C 10 km+ - 240° 240° 5 kt METAR EHKD 222255Z AUTO 24005KT 9999 NCD 14/13 Q1015 BLU
00:25
V
14 °C 10 km+ - 230° 230° 4 kt METAR EHKD 222225Z AUTO 23004KT 9999 NCD 14/13 Q1015 BLU
00:07
V
14 °C 8 km - 220° 220° 4 kt METAR EHKD 222207Z AUTO 22004KT 8000 BR NCD 14/13 Q1015 BLU
00:03
M
14 °C 7 km - 220° 220° 3 kt METAR EHKD 222203Z AUTO 22003KT 7000 BR NCD 14/13 Q1015 WHT

22 de junio de 2024

Hora Código Tiempo Temp. Visibilidad Cielo nuboso Viento METAR/SPECI
23:55
V
14 °C 9 km - 230° 230° 3 kt METAR EHKD 222155Z AUTO 23003KT 9000 BR NCD 14/13 Q1015 BLU
23:25
V
14 °C 10 km+ - 240° 240° 5 kt METAR EHKD 222125Z AUTO 24005KT 210V270 9999 NCD 14/13 Q1015 BLU
22:55
V
15 °C 10 km+ - 250° 250° 5 kt METAR EHKD 222055Z AUTO 25005KT 9999 NCD 15/13 Q1015 BLU
22:25
V
15 °C 10 km+ - 250° 250° 5 kt METAR EHKD 222025Z AUTO 25005KT 9999 NCD 15/14 Q1015 BLU
21:55
V
15 °C 10 km+ - 250° 250° 6 kt METAR EHKD 221955Z AUTO 25006KT 230V290 9999 SCT035 15/14 Q1015 BLU
21:25
V
16 °C 10 km+ - 260° 260° 7 kt METAR EHKD 221925Z AUTO 26007KT 9999 FEW009 16/14 Q1014 BLU
20:55
V
16 °C 10 km+ - 250° 250° 8 kt METAR EHKD 221855Z AUTO 25008KT 220V280 9999 NCD 16/13 Q1014 BLU
20:25
V
16 °C 10 km+ - 250° 250° 10 kt METAR EHKD 221825Z AUTO 25010KT 220V280 9999 FEW010 16/13 Q1014 BLU
19:55
V
17 °C 10 km+ - 240° 240° 10 kt METAR EHKD 221755Z AUTO 24010KT 210V280 9999 FEW011 17/14 Q1014 BLU
19:36
V
17 °C 10 km+ - 240° 240° 8 kt METAR EHKD 221736Z AUTO 24008KT 210V300 9999 SCT010 17/13 Q1014 GRN
19:25
M
17 °C 10 km+ 1.000 ft 250° 250° 10 kt METAR EHKD 221725Z AUTO 25010KT 220V290 9999 BKN010 17/13 Q1014 GRN
18:55
M
17 °C 10 km+ 1.100 ft 260° 260° 11 kt METAR EHKD 221655Z AUTO 26011KT 9999 BKN011 BKN013 17/14 Q1013 GRN
18:25
M
17 °C 10 km+ 1.100 ft 250° 250° 10 kt METAR EHKD 221625Z AUTO 25010KT 210V280 9999 BKN011 17/14 Q1013 GRN TEMPO SCT012 SCT017
17:57
M
17 °C 10 km+ 1.400 ft 260° 260° 11 kt METAR EHKD 221557Z AUTO 26011KT 220V290 9999 SCT011 BKN014 17/14 Q1013 GRN TEMPO SCT013
18:03
M
17 °C 10 km+ 1.400 ft 260° 260° 10 kt METAR EHKD 221603Z AUTO 26010KT 230V300 9999 SCT011 BKN014 BKN017 17/13 Q1013 GRN TEMPO SCT012 SCT017
17:55
M
17 °C 10 km+ 1.800 ft 250° 250° 11 kt METAR EHKD 221555Z AUTO 25011KT 220V280 9999 SCT012 BKN018 17/13 Q1013 GRN TEMPO SCT013
17:13
M
17 °C 10 km+ 1.100 ft 250° 250° 12 kt METAR EHKD 221513Z AUTO 25012KT 220V290 9999 BKN011 17/13 Q1013 GRN TEMPO SCT013
17:25
V
18 °C 10 km+ - 250° 250° 12 kt METAR EHKD 221525Z AUTO 25012KT 220V280 9999 SCT012 18/14 Q1013 GRN TEMPO SCT013
16:58
V
18 °C 10 km+ - 250° 250° 12 kt METAR EHKD 221458Z AUTO 25012KT 220V280 9999 SCT012 18/14 Q1013 GRN TEMPO SCT013
16:55
V
17 °C 10 km+ - 240° 240° 11 kt METAR EHKD 221455Z AUTO 24011KT 220V280 9999 FEW012 17/13 Q1013 BLU TEMPO SCT013
16:25
V
18 °C 10 km+ - 250° 250° 12 kt METAR EHKD 221425Z AUTO 25012KT 220V280 9999 FEW014 18/13 Q1013 BLU TEMPO SCT013
15:55
V
17 °C 10 km+ - 250° 250° 12 kt METAR EHKD 221355Z AUTO 25012KT 220V290 9999 FEW012 17/13 Q1013 BLU TEMPO SCT013
15:25
V
17 °C 10 km+ - 250° 250° 14 kt METAR EHKD 221325Z AUTO 25014KT 230V290 9999 SCT042 17/13 Q1013 BLU NOSIG
14:55
V
18 °C 10 km+ - 260° 260° 13 kt METAR EHKD 221255Z AUTO 26013KT 230V290 9999 NCD 18/13 Q1012 BLU NOSIG
14:25
V
18 °C 10 km+ - 260° 260° 13 kt METAR EHKD 221225Z AUTO 26013KT 230V300 9999 NCD 18/14 Q1012 BLU
13:55
V
17 °C 10 km+ 4.500 ft 260° 260° 15 kt METAR EHKD 221155Z AUTO 26015KT 230V290 9999 OVC045 17/14 Q1012 BLU
13:25
V
18 °C 10 km+ 4.200 ft 260° 260° 16 kt METAR EHKD 221125Z AUTO 26016KT 230V300 9999 FEW011 BKN042 18/14 Q1012 BLU
12:55
V
17 °C 10 km+ - 260° 260° 15 kt METAR EHKD 221055Z AUTO 26015KT 230V300 9999 FEW013 17/14 Q1011 BLU
12:25
V
17 °C 10 km+ - 250° 250° 14 kt METAR EHKD 221025Z AUTO 25014KT 220V290 9999 FEW014 17/13 Q1011 BLU
11:56
V
18 °C 10 km+ - 270° 270° 12 kt METAR EHKD 220956Z AUTO 27012KT 240V320 9999 NCD 18/14 Q1011 BLU
11:30
V
17 °C 10 km+ - 270° 270° 12 kt METAR EHKD 220930Z AUTO 27012KT 230V310 9999 NCD 17/14 Q1011 BLU NOSIG
11:25
V
17 °C 10 km+ - 270° 270° 13 kt METAR EHKD 220925Z AUTO 27013KT 240V310 9999 NCD 17/13 Q1010 BLU TEMPO SCT014
10:55
V
17 °C 10 km+ - 270° 270° 15 kt METAR EHKD 220855Z AUTO 27015KT 230V300 9999 NCD 17/14 Q1010 BLU TEMPO SCT014
10:25
V
17 °C 10 km+ 14.000 ft 260° 260° 14 kt METAR EHKD 220825Z AUTO 26014KT 230V300 9999 FEW011 BKN140 17/14 Q1010 BLU TEMPO SCT014
09:55
V
17 °C 10 km+ 15.000 ft 260° 260° 13 kt METAR EHKD 220755Z AUTO 26013KT 230V290 9999 OVC150 17/14 Q1010 BLU TEMPO SCT014
09:27
V
16 °C 10 km+ - 250° 250° 13 kt METAR EHKD 220727Z AUTO 25013KT 230V300 9999 NCD 16/14 Q1009 BLU TEMPO SCT014
09:25
V
16 °C 10 km+ - 250° 250° 13 kt METAR EHKD 220725Z AUTO 25013KT 230V290 9999 NCD 16/14 Q1009 BLU NOSIG
08:55
V
16 °C 10 km+ - 240° 240° 12 kt METAR EHKD 220655Z AUTO 24012KT 220V290 9999 NCD 16/14 Q1009 BLU NOSIG
08:25
V
16 °C 10 km+ - 240° 240° 14 kt METAR EHKD 220625Z AUTO 24014KT 9999 NCD 16/14 Q1009 BLU NOSIG
07:55
V
16 °C 10 km+ - 240° 240° 11 kt METAR EHKD 220555Z AUTO 24011KT 9999 NCD 16/13 Q1009 BLU NOSIG
07:25
V
16 °C 10 km+ 7.500 ft 240° 240° 10 kt METAR EHKD 220525Z AUTO 24010KT 210V270 9999 FEW070 BKN075 OVC082 16/13 Q1009 BLU NOSIG
06:55
V
15 °C 10 km+ 7.500 ft 240° 240° 12 kt METAR EHKD 220455Z AUTO 24012KT 9999 BKN075 OVC080 15/13 Q1009 BLU NOSIG
06:27
V
16 °C 10 km+ 7.900 ft 230° 230° 12 kt METAR EHKD 220427Z AUTO 23012KT 9999 OVC079 16/13 Q1009 BLU NOSIG
06:25
V
16 °C 10 km+ 8.100 ft 230° 230° 11 kt METAR EHKD 220425Z AUTO 23011KT 9999 FEW069 OVC081 16/13 Q1009 BLU
05:55
V
15 °C 10 km+ 8.000 ft 230° 230° 10 kt METAR EHKD 220355Z AUTO 23010KT 200V260 9999 OVC080 15/13 Q1009 BLU
05:25
V
15 °C 10 km+ 8.100 ft 220° 220° 9 kt METAR EHKD 220325Z AUTO 22009KT 190V260 9999 FEW061 SCT067 OVC081 15/14 Q1009 BLU
04:55
V
15 °C 10 km+ 8.000 ft 220° 220° 9 kt METAR EHKD 220255Z AUTO 22009KT 190V250 9999 OVC080 15/14 Q1009 BLU
04:40
V
15 °C 10 km+ 7.900 ft 220° 220° 9 kt METAR EHKD 220240Z AUTO 22009KT 180V240 9999 OVC079 15/14 Q1009 BLU
04:27
V
15 °C 10 km+ 8.000 ft 210° 210° 7 kt METAR EHKD 220227Z AUTO 21007KT 180V250 9999 FEW069 SCT075 BKN080 15/14 Q1009 BLU
04:25
M
14 °C 5 km 7.500 ft 200° 200° 6 kt METAR EHKD 220225Z AUTO 20006KT 180V250 5000 BR FEW069 BKN075 OVC080 14/13 Q1009 WHT
04:08
I
13 °C 4,8 km 7.500 ft 190° 190° 6 kt METAR EHKD 220208Z AUTO 19006KT 4800 BR FEW069 BKN075 OVC080 13/13 Q1009 GRN
03:57
M
13 °C 5 km 7.800 ft 190° 190° 6 kt METAR EHKD 220157Z AUTO 19006KT 5000 BR OVC078 13/12 Q1009 WHT
03:55
I
13 °C 4,9 km 7.800 ft 190° 190° 6 kt METAR EHKD 220155Z AUTO 19006KT 4900 BR OVC078 13/12 Q1009 GRN
03:41
I
13 °C 4,7 km 7.500 ft 190° 190° 5 kt METAR EHKD 220141Z AUTO 19005KT 4700 BR OVC075 13/12 Q1009 GRN
03:25
M
12 °C 5 km 7.600 ft 180° 180° 4 kt METAR EHKD 220125Z AUTO 18004KT 5000 BR OVC076 12/12 Q1009 WHT
03:14
M
12 °C 5 km 7.600 ft 180° 180° 4 kt METAR EHKD 220114Z AUTO 18004KT 5000 BR BKN076 12/11 Q1009 WHT
03:01
M
12 °C 5 km 7.300 ft 190° 190° 4 kt METAR EHKD 220101Z AUTO 19004KT 5000 BR BKN073 12/11 Q1009 WHT
02:55
M
12 °C 5 km - 190° 190° 5 kt METAR EHKD 220055Z AUTO 19005KT 5000 BR FEW074 12/11 Q1010 WHT
02:25
M
12 °C 6 km 7.000 ft 180° 180° 5 kt METAR EHKD 220025Z AUTO 18005KT 6000 BR SCT064 BKN070 12/12 Q1010 WHT
02:10
M
13 °C 7 km 6.500 ft 180° 180° 5 kt METAR EHKD 220010Z AUTO 18005KT 7000 BR BKN065 OVC070 13/12 Q1010 WHT
01:57
M
12 °C 5 km 6.600 ft 190° 190° 5 kt METAR EHKD 212357Z AUTO 19005KT 5000 BR BKN066 12/12 Q1010 WHT
01:27
I
12 °C 4,7 km - 200° 200° 5 kt METAR EHKD 212327Z AUTO 20005KT 4700 BR FEW062 12/11 Q1010 GRN
01:25
M
12 °C 6 km 6.400 ft 200° 200° 5 kt METAR EHKD 212325Z AUTO 20005KT 6000 BR BKN064 12/12 Q1010 WHT
00:55
M
13 °C 7 km - 220° 220° 4 kt METAR EHKD 212255Z AUTO 22004KT 7000 BR NCD 13/12 Q1011 WHT
00:39
M
13 °C 7 km - 240° 240° 3 kt METAR EHKD 212239Z AUTO 24003KT 7000 BR NCD 13/12 Q1011 WHT
00:25
V
14 °C 9 km 19.000 ft 260° 260° 4 kt METAR EHKD 212225Z AUTO 26004KT 9000 BR OVC190 14/13 Q1010 BLU

21 de junio de 2024

Hora Código Tiempo Temp. Visibilidad Cielo nuboso Viento METAR/SPECI
23:55
V
15 °C 10 km+ 13.000 ft 250° 250° 8 kt METAR EHKD 212155Z AUTO 25008KT 9999 OVC130 15/13 Q1011 BLU
23:25
V
15 °C 10 km+ 11.900 ft 250° 250° 10 kt METAR EHKD 212125Z AUTO 25010KT 9999 FEW009 SCT011 FEW015CB OVC119 15/14 Q1010 GRN
23:03
V
15 °C 10 km+ 9.000 ft 220° 220° 5 kt METAR EHKD 212103Z AUTO 22005KT 190V250 9999 FEW008 FEW015CB SCT016 BKN090 15/14 Q1010 WHT
23:08
V
15 °C 10 km+ 9.600 ft 230° 230° 5 kt METAR EHKD 212108Z AUTO 23005KT 200V260 9999 FEW008 SCT013 FEW015CB BKN096 15/14 Q1010 GRN
22:55
M
15 °C 10 km+ 1.700 ft 220° 220° 5 kt METAR EHKD 212055Z AUTO 22005KT 9999 FEW008 SCT010 FEW015CB BKN017 15/14 Q1010 GRN
22:25
V
15 °C 10 km+ 7.700 ft 210° 210° 5 kt METAR EHKD 212025Z AUTO 21005KT 9999 FEW015CB SCT070 BKN077 15/14 Q1010 BLU
21:55
V
16 °C 10 km+ 8.400 ft 210° 210° 3 kt METAR EHKD 211955Z AUTO 21003KT 9999 FEW061 BKN084 OVC100 16/15 Q1010 BLU
21:43
V
16 °C 10 km+ 9.700 ft 210° 210° 3 kt METAR EHKD 211943Z AUTO 21003KT 9999 FEW084 SCT090 BKN097 16/15 Q1010 BLU CAVOK
21:25
V
16 °C 10 km+ 11.000 ft 230° 230° 2 kt METAR EHKD 211925Z AUTO 23002KT 9999 OVC110 16/15 Q1010 BLU CAVOK
20:55
V
16 °C 10 km+ 10.000 ft 360° 360° 0 kt METAR EHKD 211855Z AUTO 00000KT 9999 OVC100 16/15 Q1010 REDZ BLU CAVOK
20:25
V
16 °C 10 km+ 9.800 ft Var Var 2 kt METAR EHKD 211825Z AUTO VRB02KT 9999 -DZ FEW015CB OVC098 16/15 Q1010 BLU 32006KT BECMG 21006KT
19:55
V
16 °C 10 km+ 10.000 ft 320° 320° 3 kt METAR EHKD 211755Z AUTO 32003KT 290V350 9999 FEW015CB OVC100 16/15 Q1010 BLU 32006KT BECMG 21006KT
19:25
V
16 °C 10 km+ 10.000 ft 320° 320° 3 kt METAR EHKD 211725Z AUTO 32003KT 280V360 9999 -DZ FEW010 FEW015CB OVC100 16/15 Q1010 BLU 03010KT FEW007 SCT009 BKN090 BECMG 21006KT NSC
18:46
V
16 °C 10 km+ 9.700 ft Var Var 2 kt METAR EHKD 211646Z AUTO VRB02KT 9999 -RADZ SCT015CB BKN097 OVC100 16/15 Q1010 WHT 03010KT FEW007 SCT009 BKN090 BECMG 21006KT NSC
18:55
V
16 °C 10 km+ 9.700 ft 010° 010° 3 kt METAR EHKD 211655Z AUTO 01003KT 330V040 9999 DZ FEW007 SCT015CB BKN097 OVC106 16/15 Q1010 WHT 03010KT FEW007 SCT009 BKN090 BECMG 21006KT NSC
17:27
V
16 °C 10 km+ 9.500 ft 010° 010° 5 kt METAR EHKD 211527Z AUTO 01005KT 340V040 9999 -RA FEW015CB SCT081 BKN095 16/15 Q1011 BLU 03010KT BKN040
17:45
V
16 °C 10 km+ 9.500 ft 340° 340° 4 kt METAR EHKD 211545Z AUTO 34004KT 300V030 9999 -RA FEW015CB OVC095 16/15 Q1010 BLU 03010KT BKN040 BECMG 21006KT
18:25
V
16 °C 10 km+ 9.500 ft Var Var 1 kt METAR EHKD 211625Z AUTO VRB01KT 9999 -RA FEW007 SCT008 SCT015CB OVC095 16/15 Q1011 RERA REDZ GRN 03010KT BKN040 BECMG 21006KT
18:04
V
16 °C 10 km+ 9.300 ft 360° 360° 3 kt METAR EHKD 211604Z AUTO 36003KT 330V040 9999 -RA SCT015CB OVC093 16/15 Q1010 WHT 03010KT BKN040 BECMG 21006KT
17:55
V
16 °C 10 km+ 9.500 ft 340° 340° 3 kt METAR EHKD 211555Z AUTO 34003KT 300V020 9999 -RA FEW015CB OVC095 16/15 Q1010 RERA REDZ BLU 03010KT BKN040 BECMG 21006KT
17:05
V
16 °C 10 km+ 9.500 ft 360° 360° 4 kt METAR EHKD 211505Z AUTO 36004KT 310V040 9999 -RA SCT015CB BKN095 OVC100 16/14 Q1011 WHT 03010KT BKN040
17:25
V
16 °C 10 km+ 9.800 ft 010° 010° 5 kt METAR EHKD 211525Z AUTO 01005KT 340V050 9999 -RA SCT015CB OVC098 16/15 Q1011 WHT 03010KT BKN040
16:55
V
16 °C 10 km+ 9.800 ft 020° 020° 5 kt METAR EHKD 211455Z AUTO 02005KT 340V050 9999 -SHRA SCT015CB SCT093 BKN098 16/15 Q1011 WHT 03010KT BKN040
16:27
V
16 °C 10 km+ 8.000 ft 030° 030° 6 kt METAR EHKD 211427Z AUTO 03006KT 360V070 9999 -RA SCT015CB OVC080 16/14 Q1011 WHT 03010KT BKN040
16:25
V
16 °C 10 km+ 8.200 ft 030° 030° 6 kt METAR EHKD 211425Z AUTO 03006KT 360V060 9999 -RA FEW015CB OVC082 16/14 Q1011 BLU 03010KT BKN040
15:55
V
16 °C 10 km+ 8.800 ft 030° 030° 7 kt METAR EHKD 211355Z AUTO 03007KT 350V060 9999 -RADZ BKN088 BKN095 OVC100 16/14 Q1011 BLU 03010KT BKN040
15:25
V
17 °C 10 km+ 4.500 ft 030° 030° 7 kt METAR EHKD 211325Z AUTO 03007KT 360V060 9999 OVC045 17/14 Q1011 BLU NOSIG
14:55
V
17 °C 10 km+ 6.500 ft 040° 040° 8 kt METAR EHKD 211255Z AUTO 04008KT 010V080 9999 OVC065 17/13 Q1012 BLU NOSIG
14:25
V
17 °C 10 km+ 6.500 ft 030° 030° 9 kt METAR EHKD 211225Z AUTO 03009KT 350V070 9999 OVC065 17/14 Q1012 BLU NOSIG
13:55
V
17 °C 10 km+ 6.500 ft 030° 030° 9 kt METAR EHKD 211155Z AUTO 03009KT 350V070 9999 OVC065 17/14 Q1012 BLU NOSIG
13:25
V
17 °C 10 km+ 14.000 ft 030° 030° 9 kt METAR EHKD 211125Z AUTO 03009KT 350V070 9999 SCT066 OVC140 17/14 Q1012 BLU NOSIG
12:55
V
17 °C 10 km+ 16.000 ft 020° 020° 10 kt METAR EHKD 211055Z AUTO 02010KT 340V060 9999 OVC160 17/14 Q1012 BLU NOSIG
12:25
V
18 °C 10 km+ 15.000 ft 030° 030° 8 kt METAR EHKD 211025Z AUTO 03008KT 350V070 9999 OVC150 18/15 Q1013 BLU NOSIG
11:55
V
18 °C 10 km+ 27.000 ft 050° 050° 9 kt METAR EHKD 210955Z AUTO 05009KT 010V080 9999 SCT140 OVC270 18/14 Q1013 BLU NOSIG
11:25
V
17 °C 10 km+ 15.000 ft 050° 050° 9 kt METAR EHKD 210925Z AUTO 05009KT 010V080 9999 OVC150 17/14 Q1013 BLU NOSIG
10:55
V
17 °C 10 km+ 15.000 ft 040° 040° 7 kt METAR EHKD 210855Z AUTO 04007KT 010V070 9999 OVC150 17/14 Q1013 BLU NOSIG
10:25
V
17 °C 10 km+ 15.000 ft 050° 050° 9 kt METAR EHKD 210825Z AUTO 05009KT 9999 OVC150 17/14 Q1013 BLU NOSIG
09:55
V
17 °C 10 km+ 15.000 ft 040° 040° 8 kt METAR EHKD 210755Z AUTO 04008KT 360V070 9999 OVC150 17/14 Q1013 BLU NOSIG
09:25
V
17 °C 10 km+ 14.000 ft 060° 060° 9 kt METAR EHKD 210725Z AUTO 06009KT 9999 OVC140 17/13 Q1014 BLU NOSIG
08:55
V
16 °C 10 km+ 9.400 ft 060° 060° 8 kt METAR EHKD 210655Z AUTO 06008KT 9999 OVC094 16/13 Q1014 BLU NOSIG
08:25
V
16 °C 10 km+ 9.400 ft 060° 060° 8 kt METAR EHKD 210625Z AUTO 06008KT 9999 OVC094 16/13 Q1014 BLU NOSIG
07:55
V
16 °C 10 km+ 9.300 ft 060° 060° 8 kt METAR EHKD 210555Z AUTO 06008KT 9999 BKN093 OVC150 16/13 Q1014 BLU NOSIG
07:25
V
16 °C 10 km+ 14.000 ft 060° 060° 9 kt METAR EHKD 210525Z AUTO 06009KT 9999 OVC140 16/13 Q1014 BLU NOSIG
06:55
V
15 °C 10 km+ 16.000 ft 060° 060° 8 kt METAR EHKD 210455Z AUTO 06008KT 9999 BKN160 OVC300 15/13 Q1014 BLU NOSIG
06:25
V
15 °C 10 km+ 31.000 ft 060° 060° 9 kt METAR EHKD 210425Z AUTO 06009KT 9999 BKN310 15/13 Q1014 BLU NOSIG
05:58
V
15 °C 10 km+ - 050° 050° 9 kt METAR EHKD 210358Z AUTO 05009KT 9999 NCD 15/12 Q1014 BLU NOSIG
05:55
V
15 °C 10 km+ - 050° 050° 9 kt METAR EHKD 210355Z AUTO 05009KT 010V070 9999 NCD 15/12 Q1014 BLU
05:25
V
15 °C 10 km+ 20.000 ft 050° 050° 8 kt METAR EHKD 210325Z AUTO 05008KT 360V080 9999 OVC200 15/12 Q1014 BLU
04:55
V
15 °C 10 km+ - 050° 050° 9 kt METAR EHKD 210255Z AUTO 05009KT 9999 SCT180 15/13 Q1015 BLU
04:25
V
15 °C 10 km+ 18.000 ft 050° 050° 8 kt METAR EHKD 210225Z AUTO 05008KT 9999 OVC180 15/13 Q1015 BLU
03:55
V
15 °C 10 km+ 18.000 ft 050° 050° 8 kt METAR EHKD 210155Z AUTO 05008KT 9999 SCT110 OVC180 15/13 Q1015 BLU
03:25
V
15 °C 10 km+ 18.000 ft 060° 060° 8 kt METAR EHKD 210125Z AUTO 06008KT 9999 FEW110 OVC180 15/13 Q1016 BLU
02:55
V
15 °C 10 km+ 11.000 ft 060° 060° 8 kt METAR EHKD 210055Z AUTO 06008KT 9999 OVC110 15/12 Q1016 BLU
02:25
V
15 °C 10 km+ 11.000 ft 060° 060° 8 kt METAR EHKD 210025Z AUTO 06008KT 9999 BKN110 15/13 Q1016 BLU
01:55
V
15 °C 10 km+ 11.000 ft 070° 070° 8 kt METAR EHKD 202355Z AUTO 07008KT 9999 BKN110 BKN320 15/13 Q1017 BLU
01:25
V
15 °C 10 km+ - 060° 060° 10 kt METAR EHKD 202325Z AUTO 06010KT 9999 NCD 15/12 Q1017 BLU
00:55
V
15 °C 10 km+ 30.000 ft 060° 060° 11 kt METAR EHKD 202255Z AUTO 06011KT 9999 OVC300 15/12 Q1017 BLU
00:25
V
15 °C 10 km+ - 060° 060° 11 kt METAR EHKD 202225Z AUTO 06011KT 9999 FEW310 15/12 Q1017 BLU

20 de junio de 2024

Hora Código Tiempo Temp. Visibilidad Cielo nuboso Viento METAR/SPECI
23:55
V
16 °C 10 km+ 11.000 ft 050° 050° 11 kt METAR EHKD 202155Z AUTO 05011KT 9999 OVC110 16/12 Q1017 BLU
23:25
V
16 °C 10 km+ 11.000 ft 050° 050° 11 kt METAR EHKD 202125Z AUTO 05011KT 9999 OVC110 16/13 Q1017 BLU
22:55
V
16 °C 10 km+ 10.000 ft 040° 040° 9 kt METAR EHKD 202055Z AUTO 04009KT 350V070 9999 OVC100 16/13 Q1017 BLU CAVOK
22:25
V
16 °C 10 km+ 11.000 ft 040° 040° 8 kt METAR EHKD 202025Z AUTO 04008KT 360V080 9999 OVC110 16/13 Q1017 BLU CAVOK
21:55
V
16 °C 10 km+ 10.000 ft 030° 030° 9 kt METAR EHKD 201955Z AUTO 03009KT 360V060 9999 OVC100 16/13 Q1017 BLU CAVOK
21:25
V
16 °C 10 km+ 10.000 ft 040° 040° 9 kt METAR EHKD 201925Z AUTO 04009KT 360V080 9999 OVC100 16/13 Q1017 BLU CAVOK
20:55
V
16 °C 10 km+ 7.900 ft 040° 040° 9 kt METAR EHKD 201855Z AUTO 04009KT 350V090 9999 FEW073 BKN079 OVC090 16/13 Q1017 BLU CAVOK
20:25
V
16 °C 10 km+ 10.000 ft 050° 050° 9 kt METAR EHKD 201825Z AUTO 05009KT 010V080 9999 OVC100 16/13 Q1018 BLU CAVOK
19:55
V
16 °C 10 km+ 11.000 ft 030° 030° 9 kt METAR EHKD 201755Z AUTO 03009KT 350V070 9999 OVC110 16/12 Q1018 BLU CAVOK
19:25
V
17 °C 10 km+ 18.000 ft 030° 030° 10 kt METAR EHKD 201725Z AUTO 03010KT 360V080 9999 FEW110 OVC180 17/13 Q1018 BLU CAVOK
18:55
V
18 °C 10 km+ 11.000 ft 050° 050° 11 kt METAR EHKD 201655Z AUTO 05011KT 010V080 9999 OVC110 18/13 Q1018 BLU CAVOK
18:25
V
17 °C 10 km+ 19.000 ft 030° 030° 10 kt METAR EHKD 201625Z AUTO 03010KT 360V060 9999 SCT110 BKN190 17/12 Q1018 BLU CAVOK
17:55
V
17 °C 10 km+ 19.000 ft 040° 040° 9 kt METAR EHKD 201555Z AUTO 04009KT 360V070 9999 OVC190 17/12 Q1019 BLU CAVOK
17:25
V
17 °C 10 km+ 21.000 ft 030° 030° 9 kt METAR EHKD 201525Z AUTO 03009KT 350V070 9999 BKN210 17/12 Q1019 BLU CAVOK
16:55
V
17 °C 10 km+ - 030° 030° 9 kt METAR EHKD 201455Z AUTO 03009KT 350V070 9999 SCT220 17/12 Q1019 BLU CAVOK
16:25
V
17 °C 10 km+ 21.000 ft 030° 030° 9 kt METAR EHKD 201425Z AUTO 03009KT 350V060 9999 OVC210 17/12 Q1019 BLU CAVOK
15:55
V
17 °C 10 km+ 21.000 ft 030° 030° 8 kt METAR EHKD 201355Z AUTO 03008KT 350V070 9999 OVC210 17/12 Q1020 BLU CAVOK
15:25
V
17 °C 10 km+ 22.000 ft 030° 030° 8 kt METAR EHKD 201325Z AUTO 03008KT 350V070 9999 OVC220 17/11 Q1020 BLU CAVOK
14:55
V
17 °C 10 km+ 22.000 ft 020° 020° 8 kt METAR EHKD 201255Z AUTO 02008KT 350V070 9999 OVC220 17/12 Q1021 BLU NOSIG
14:25
V
17 °C 10 km+ 21.000 ft 060° 060° 7 kt METAR EHKD 201225Z AUTO 06007KT 360V090 9999 OVC210 17/10 Q1021 BLU NOSIG
13:55
V
16 °C 10 km+ 22.000 ft 060° 060° 7 kt METAR EHKD 201155Z AUTO 06007KT 360V110 9999 OVC220 16/10 Q1021 BLU NOSIG
13:25
V
16 °C 10 km+ 23.000 ft 060° 060° 7 kt METAR EHKD 201125Z AUTO 06007KT 040V100 9999 FEW150 OVC230 16/10 Q1021 BLU NOSIG
12:55
V
16 °C 10 km+ 15.000 ft 060° 060° 7 kt METAR EHKD 201055Z AUTO 06007KT 020V090 9999 OVC150 16/10 Q1021 BLU NOSIG
12:25
V
16 °C 10 km+ 15.000 ft 080° 080° 7 kt METAR EHKD 201025Z AUTO 08007KT 040V100 9999 OVC150 16/10 Q1021 BLU NOSIG
11:55
V
16 °C 10 km+ 15.000 ft 060° 060° 7 kt METAR EHKD 200955Z AUTO 06007KT 030V100 9999 OVC150 16/10 Q1021 BLU NOSIG
11:25
V
15 °C 10 km+ 16.000 ft 070° 070° 7 kt METAR EHKD 200925Z AUTO 07007KT 040V100 9999 OVC160 15/11 Q1021 BLU NOSIG
10:55
V
15 °C 10 km+ 14.000 ft 080° 080° 7 kt METAR EHKD 200855Z AUTO 08007KT 050V110 9999 OVC140 15/10 Q1021 BLU NOSIG
10:25
V
15 °C 10 km+ 15.000 ft 100° 100° 6 kt METAR EHKD 200825Z AUTO 10006KT 070V130 9999 OVC150 15/10 Q1022 BLU NOSIG
09:55
V
15 °C 10 km+ 17.000 ft 100° 100° 6 kt METAR EHKD 200755Z AUTO 10006KT 070V140 9999 BKN170 OVC260 15/11 Q1023 BLU NOSIG
09:25
V
15 °C 10 km+ 22.000 ft 130° 130° 7 kt METAR EHKD 200725Z AUTO 13007KT 090V160 9999 OVC220 15/11 Q1022 BLU NOSIG
08:55
V
14 °C 10 km+ 23.000 ft 100° 100° 6 kt METAR EHKD 200655Z AUTO 10006KT 9999 OVC230 14/10 Q1022 BLU NOSIG
08:25
V
14 °C 10 km+ 25.000 ft 090° 090° 7 kt METAR EHKD 200625Z AUTO 09007KT 060V130 9999 OVC250 14/10 Q1022 BLU NOSIG
07:55
V
13 °C 10 km+ 31.000 ft 080° 080° 5 kt METAR EHKD 200555Z AUTO 08005KT 9999 OVC310 13/10 Q1022 BLU NOSIG
Cambiar esta información